createdAt,value
2022-11-16T00:00:23.775Z,11.48
2022-11-16T00:02:25.358Z,11.50
2022-11-16T00:04:26.902Z,11.50
2022-11-16T00:06:29.288Z,11.50
2022-11-16T00:08:36.516Z,11.50
2022-11-16T00:10:38.130Z,11.50
2022-11-16T00:12:39.803Z,11.50
2022-11-16T00:14:41.256Z,11.50
2022-11-16T00:16:42.727Z,11.49
2022-11-16T00:18:44.510Z,11.50
2022-11-16T00:20:46.011Z,11.50
2022-11-16T00:22:47.429Z,11.50
2022-11-16T00:24:49.272Z,11.50
2022-11-16T00:26:53.187Z,11.49
2022-11-16T00:28:55.408Z,11.50
2022-11-16T00:31:02.226Z,11.51
2022-11-16T00:33:04.910Z,11.51
2022-11-16T00:35:07.195Z,11.49
2022-11-16T00:37:08.714Z,11.49
2022-11-16T00:39:12.004Z,11.49
2022-11-16T00:41:13.872Z,11.47
2022-11-16T00:43:15.356Z,11.48
2022-11-16T00:45:16.784Z,11.47
2022-11-16T00:47:18.311Z,11.47
2022-11-16T00:49:19.852Z,11.46
2022-11-16T00:51:21.296Z,11.45
2022-11-16T00:53:22.730Z,11.43
2022-11-16T00:55:24.175Z,11.40
2022-11-16T00:57:25.606Z,11.38
2022-11-16T00:59:27.088Z,11.38
2022-11-16T01:01:29.032Z,11.36
2022-11-16T01:03:30.513Z,11.35
2022-11-16T01:05:32.082Z,11.32
2022-11-16T01:07:35.670Z,11.31
2022-11-16T01:09:37.177Z,11.29
2022-11-16T01:11:57.265Z,11.27
2022-11-16T01:13:59.040Z,11.26
2022-11-16T01:16:00.468Z,11.25
2022-11-16T01:18:01.924Z,11.24
2022-11-16T01:20:06.095Z,11.23
2022-11-16T01:22:08.653Z,11.21
2022-11-16T01:24:10.117Z,11.19
2022-11-16T01:26:11.618Z,11.18
2022-11-16T01:28:13.057Z,11.17
2022-11-16T01:30:15.882Z,11.15
2022-11-16T01:32:17.324Z,11.13
2022-11-16T01:34:18.841Z,11.14
2022-11-16T01:36:20.310Z,11.13
2022-11-16T01:38:24.874Z,11.12
2022-11-16T01:40:29.962Z,11.12
2022-11-16T01:42:31.962Z,11.12
2022-11-16T01:44:33.349Z,11.10
2022-11-16T01:46:34.789Z,11.10
2022-11-16T01:48:36.604Z,11.07
2022-11-16T01:50:39.002Z,11.07
2022-11-16T01:52:46.109Z,11.07
2022-11-16T01:54:51.266Z,11.06
2022-11-16T01:56:55.951Z,11.06
2022-11-16T01:58:57.762Z,11.02
2022-11-16T02:00:59.535Z,11.01
2022-11-16T02:03:01.001Z,11.00
2022-11-16T02:05:03.625Z,11.00
2022-11-16T02:07:23.441Z,11.00
2022-11-16T02:09:59.288Z,10.97
2022-11-16T02:12:29.913Z,10.97
2022-11-16T02:14:47.277Z,10.93
2022-11-16T02:17:11.655Z,10.91
2022-11-16T02:19:34.836Z,10.93
2022-11-16T02:21:51.293Z,10.92
2022-11-16T02:23:55.508Z,10.90
2022-11-16T02:26:03.078Z,10.89
2022-11-16T02:28:16.427Z,10.88
2022-11-16T02:30:20.191Z,10.87
2022-11-16T02:32:47.977Z,10.84
2022-11-16T02:34:55.897Z,10.83
2022-11-16T02:37:01.501Z,10.83
2022-11-16T02:39:10.424Z,10.84
2022-11-16T02:41:17.122Z,10.81
2022-11-16T02:43:31.532Z,10.82
2022-11-16T02:45:38.034Z,10.83
2022-11-16T02:47:41.803Z,10.84
2022-11-16T02:49:47.649Z,10.82
2022-11-16T02:51:50.801Z,10.82
2022-11-16T02:53:58.068Z,10.83
2022-11-16T02:55:59.876Z,10.81
2022-11-16T02:58:03.581Z,10.81
2022-11-16T03:00:06.582Z,10.81
2022-11-16T03:02:27.187Z,10.81
2022-11-16T03:04:36.244Z,10.80
2022-11-16T03:06:41.538Z,10.80
2022-11-16T03:08:47.955Z,10.79
2022-11-16T03:11:19.103Z,10.75
2022-11-16T03:13:23.130Z,10.75
2022-11-16T03:15:26.127Z,10.74
2022-11-16T03:17:44.489Z,10.72
2022-11-16T03:19:58.406Z,10.72
2022-11-16T03:22:07.227Z,10.69
2022-11-16T03:24:08.726Z,10.63
2022-11-16T03:26:14.080Z,10.62
2022-11-16T03:28:20.181Z,10.61
2022-11-16T03:30:24.236Z,10.61
2022-11-16T03:32:30.304Z,10.58
2022-11-16T03:34:35.791Z,10.55
2022-11-16T03:36:41.780Z,10.54
2022-11-16T03:38:46.406Z,10.52
2022-11-16T03:40:50.055Z,10.49
2022-11-16T03:42:52.343Z,10.47
2022-11-16T03:44:55.030Z,10.45
2022-11-16T03:46:56.573Z,10.41
2022-11-16T03:48:59.387Z,10.41
2022-11-16T03:51:01.009Z,10.37
2022-11-16T03:53:02.443Z,10.34
2022-11-16T03:55:05.063Z,10.35
2022-11-16T03:57:06.549Z,10.31
2022-11-16T03:59:08.025Z,10.29
2022-11-16T04:01:09.849Z,10.28
2022-11-16T04:03:11.331Z,10.28
2022-11-16T04:05:31.232Z,10.26
2022-11-16T04:07:51.106Z,10.25
2022-11-16T04:10:10.860Z,10.24
2022-11-16T04:12:30.754Z,10.23
2022-11-16T04:14:51.007Z,10.21
2022-11-16T04:17:10.814Z,10.17
2022-11-16T04:19:30.532Z,10.12
2022-11-16T04:21:57.260Z,10.12
2022-11-16T04:24:13.634Z,10.09
2022-11-16T04:26:15.300Z,10.07
2022-11-16T04:28:19.916Z,10.07
2022-11-16T04:30:21.515Z,10.05
2022-11-16T04:32:41.786Z,10.04
2022-11-16T04:35:02.216Z,10.05
2022-11-16T04:37:22.528Z,10.03
2022-11-16T04:39:23.966Z,10.01
2022-11-16T04:41:44.336Z,10.01
2022-11-16T04:43:45.771Z,9.99
2022-11-16T04:46:05.442Z,9.98
2022-11-16T04:48:07.414Z,9.94
2022-11-16T04:50:08.971Z,9.91
2022-11-16T04:52:10.591Z,9.91
2022-11-16T04:54:12.117Z,9.90
2022-11-16T04:56:13.622Z,9.88
2022-11-16T04:58:15.047Z,9.86
2022-11-16T05:00:17.210Z,9.84
2022-11-16T05:02:18.781Z,9.84
2022-11-16T05:04:20.253Z,9.83
2022-11-16T05:06:21.687Z,9.80
2022-11-16T05:08:23.095Z,9.77
2022-11-16T05:10:24.533Z,9.75
2022-11-16T05:12:27.892Z,9.74
2022-11-16T05:14:29.370Z,9.74
2022-11-16T05:16:30.883Z,9.74
2022-11-16T05:18:32.675Z,9.74
2022-11-16T05:20:53.037Z,9.71
2022-11-16T05:22:56.396Z,9.68
2022-11-16T05:24:57.920Z,9.66
2022-11-16T05:27:10.578Z,9.62
2022-11-16T05:29:12.032Z,9.60
2022-11-16T05:31:13.465Z,9.58
2022-11-16T05:33:16.462Z,9.55
2022-11-16T05:35:17.970Z,9.52
2022-11-16T05:37:21.122Z,9.51
2022-11-16T05:39:23.269Z,9.50
2022-11-16T05:41:24.713Z,9.48
2022-11-16T05:43:26.158Z,9.49
2022-11-16T05:45:27.609Z,9.50
2022-11-16T05:47:29.139Z,9.50
2022-11-16T05:49:30.880Z,9.49
2022-11-16T05:51:32.362Z,9.47
2022-11-16T05:53:33.789Z,9.43
2022-11-16T05:55:35.921Z,9.42
2022-11-16T05:57:37.332Z,9.39
2022-11-16T05:59:38.771Z,9.37
2022-11-16T06:01:40.664Z,9.36
2022-11-16T06:03:42.226Z,9.34
2022-11-16T06:05:43.655Z,9.32
2022-11-16T06:07:45.091Z,9.30
2022-11-16T06:09:46.523Z,9.29
2022-11-16T06:11:48.139Z,9.26
2022-11-16T06:13:49.688Z,9.28
2022-11-16T06:15:51.135Z,9.28
2022-11-16T06:17:52.640Z,9.27
2022-11-16T06:19:54.107Z,9.24
2022-11-16T06:21:55.582Z,9.23
2022-11-16T06:23:57.084Z,9.22
2022-11-16T06:25:58.651Z,9.20
2022-11-16T06:28:04.003Z,9.18
2022-11-16T06:30:08.448Z,9.15
2022-11-16T06:32:09.887Z,9.15
2022-11-16T06:34:11.441Z,9.15
2022-11-16T06:36:12.877Z,9.13
2022-11-16T06:38:18.615Z,9.10
2022-11-16T06:40:20.031Z,9.10
2022-11-16T06:42:21.461Z,9.10
2022-11-16T06:44:22.933Z,9.08
2022-11-16T06:46:24.895Z,9.06
2022-11-16T06:48:26.570Z,9.07
2022-11-16T06:50:28.021Z,9.06
2022-11-16T06:52:29.582Z,9.06
2022-11-16T06:54:31.101Z,9.06
2022-11-16T06:56:34.827Z,9.06
2022-11-16T06:58:36.641Z,9.05
2022-11-16T07:00:38.516Z,9.05
2022-11-16T07:02:40.378Z,9.03
2022-11-16T07:04:41.854Z,9.03
2022-11-16T07:06:43.374Z,9.01
2022-11-16T07:08:44.862Z,9.01
2022-11-16T07:10:46.291Z,8.98
2022-11-16T07:12:47.934Z,8.96
2022-11-16T07:14:49.402Z,8.94
2022-11-16T07:16:54.870Z,8.91
2022-11-16T07:18:59.622Z,8.90
2022-11-16T07:21:10.052Z,8.90
2022-11-16T07:23:14.199Z,8.88
2022-11-16T07:25:15.972Z,8.85
2022-11-16T07:27:17.402Z,8.86
2022-11-16T07:29:19.417Z,8.88
2022-11-16T07:31:20.891Z,8.89
2022-11-16T07:33:22.450Z,8.88
2022-11-16T07:35:23.880Z,8.90
2022-11-16T07:37:25.345Z,8.88
2022-11-16T07:39:26.936Z,8.87
2022-11-16T07:41:28.374Z,8.84
2022-11-16T07:43:35.195Z,8.83
2022-11-16T07:45:36.619Z,8.81
2022-11-16T07:47:38.328Z,8.83
2022-11-16T07:49:40.090Z,8.79
2022-11-16T07:51:41.690Z,8.78
2022-11-16T07:53:43.908Z,8.76
2022-11-16T07:55:52.959Z,8.72
2022-11-16T07:57:54.411Z,8.70
2022-11-16T07:59:56.132Z,8.70
2022-11-16T08:01:59.287Z,8.69
2022-11-16T08:04:01.868Z,8.66
2022-11-16T08:06:19.390Z,8.65
2022-11-16T08:08:20.827Z,8.65
2022-11-16T08:10:23.262Z,8.67
2022-11-16T08:12:24.833Z,8.65
2022-11-16T08:14:26.311Z,8.64
2022-11-16T08:16:27.923Z,8.63
2022-11-16T08:18:29.929Z,8.64
2022-11-16T08:20:31.498Z,8.65
2022-11-16T08:22:32.951Z,8.63
2022-11-16T08:24:34.439Z,8.61
2022-11-16T08:26:35.875Z,8.59
2022-11-16T08:28:37.885Z,8.58
2022-11-16T08:30:39.846Z,8.58
2022-11-16T08:32:42.192Z,8.56
2022-11-16T08:34:43.616Z,8.55
2022-11-16T08:36:45.040Z,8.53
2022-11-16T08:38:48.581Z,8.54
2022-11-16T08:40:50.860Z,8.53
2022-11-16T08:42:56.977Z,8.47
2022-11-16T08:44:58.450Z,8.44
2022-11-16T08:47:00.229Z,8.42
2022-11-16T08:49:01.698Z,8.40
2022-11-16T08:51:19.339Z,8.40
2022-11-16T08:53:21.482Z,8.38
2022-11-16T08:55:23.874Z,8.38
2022-11-16T08:57:25.345Z,8.37
2022-11-16T08:59:26.847Z,8.38
2022-11-16T09:01:30.831Z,8.36
2022-11-16T09:03:32.283Z,8.34
2022-11-16T09:05:33.720Z,8.34
2022-11-16T09:07:35.205Z,8.35
2022-11-16T09:09:36.706Z,8.36
2022-11-16T09:11:38.196Z,8.34
2022-11-16T09:13:39.743Z,8.34
2022-11-16T09:15:41.232Z,8.33
2022-11-16T09:17:42.667Z,8.32
2022-11-16T09:19:44.177Z,8.30
2022-11-16T09:21:45.642Z,8.27
2022-11-16T09:23:48.125Z,8.25
2022-11-16T09:25:49.594Z,8.26
2022-11-16T09:27:51.046Z,8.26
2022-11-16T09:29:52.508Z,8.27
2022-11-16T09:31:55.323Z,8.24
2022-11-16T09:33:58.804Z,8.22
2022-11-16T09:36:07.262Z,8.24
2022-11-16T09:38:09.980Z,8.21
2022-11-16T09:40:12.523Z,8.20
2022-11-16T09:42:27.392Z,8.22
2022-11-16T09:44:53.537Z,8.22
2022-11-16T09:47:00.354Z,8.18
2022-11-16T09:49:16.867Z,8.17
2022-11-16T09:51:21.694Z,8.18
2022-11-16T09:53:46.084Z,8.15
2022-11-16T09:55:51.464Z,8.16
2022-11-16T09:57:57.938Z,8.16
2022-11-16T10:00:04.472Z,8.14
2022-11-16T10:02:21.059Z,8.12
2022-11-16T10:04:40.383Z,8.11
2022-11-16T10:06:48.327Z,8.13
2022-11-16T10:08:56.636Z,8.13
2022-11-16T10:11:17.847Z,8.16
2022-11-16T10:13:31.354Z,8.13
2022-11-16T10:15:57.614Z,8.12
2022-11-16T10:18:04.818Z,8.14
2022-11-16T10:20:27.658Z,8.13
2022-11-16T10:22:55.317Z,8.16
2022-11-16T10:25:01.056Z,8.17
2022-11-16T10:27:32.811Z,8.15
2022-11-16T10:29:48.163Z,8.12
2022-11-16T10:32:20.991Z,8.12
2022-11-16T10:34:27.579Z,8.11
2022-11-16T10:36:32.645Z,8.13
2022-11-16T10:38:34.921Z,8.11
2022-11-16T10:40:38.020Z,8.12
2022-11-16T10:42:39.519Z,8.10
2022-11-16T10:44:48.135Z,8.11
2022-11-16T10:47:23.134Z,8.09
2022-11-16T10:49:37.458Z,8.11
2022-11-16T10:51:38.987Z,8.09
2022-11-16T10:53:43.823Z,8.09
2022-11-16T10:55:45.240Z,8.07
2022-11-16T10:58:03.927Z,8.06
2022-11-16T11:00:09.781Z,8.00
2022-11-16T11:02:22.956Z,7.96
2022-11-16T11:04:30.345Z,7.99
2022-11-16T11:06:31.835Z,7.99
2022-11-16T11:08:34.042Z,8.00
2022-11-16T11:10:40.712Z,7.97
2022-11-16T11:13:20.876Z,7.95
2022-11-16T11:15:27.092Z,7.95
2022-11-16T11:17:30.660Z,7.95
2022-11-16T11:19:32.075Z,7.94
2022-11-16T11:21:33.520Z,7.96
2022-11-16T11:23:44.325Z,7.93
2022-11-16T11:25:53.883Z,7.92
2022-11-16T11:28:20.242Z,7.96
2022-11-16T11:30:22.398Z,7.95
2022-11-16T11:32:30.753Z,7.94
2022-11-16T11:34:40.562Z,7.90
2022-11-16T11:36:52.693Z,7.89
2022-11-16T11:39:03.272Z,7.86
2022-11-16T11:41:07.489Z,7.83
2022-11-16T11:43:22.862Z,7.87
2022-11-16T11:45:48.342Z,7.87
2022-11-16T11:47:59.868Z,7.90
2022-11-16T11:50:11.076Z,7.90
2022-11-16T11:52:20.780Z,7.92
2022-11-16T11:54:27.847Z,7.91
2022-11-16T11:56:31.891Z,7.92
2022-11-16T11:58:36.981Z,7.93
2022-11-16T12:01:03.348Z,7.92
2022-11-16T12:03:26.700Z,7.92
2022-11-16T12:05:44.056Z,7.94
2022-11-16T12:07:57.724Z,7.94
2022-11-16T12:10:36.135Z,7.93
2022-11-16T12:13:03.173Z,7.95
2022-11-16T12:15:21.432Z,7.94
2022-11-16T12:17:40.745Z,7.92
2022-11-16T12:20:03.071Z,7.93
2022-11-16T12:22:10.440Z,7.95
2022-11-16T12:24:15.028Z,7.95
2022-11-16T12:26:46.075Z,7.94
2022-11-16T12:28:56.252Z,7.91
2022-11-16T12:31:28.400Z,7.92
2022-11-16T12:33:54.500Z,7.94
2022-11-16T12:36:08.606Z,7.96
2022-11-16T12:38:29.820Z,7.98
2022-11-16T12:40:50.218Z,7.99
2022-11-16T12:42:58.591Z,8.00
2022-11-16T12:45:30.554Z,8.02
2022-11-16T12:48:01.009Z,8.03
2022-11-16T12:50:40.152Z,8.01
2022-11-16T12:52:56.799Z,7.99
2022-11-16T12:55:26.804Z,7.99
2022-11-16T12:57:56.819Z,8.00
2022-11-16T12:59:58.188Z,8.03
2022-11-16T13:02:13.927Z,8.08
2022-11-16T13:04:35.378Z,8.10
2022-11-16T13:06:55.190Z,8.12
2022-11-16T13:09:45.587Z,8.11
2022-11-16T13:11:57.389Z,8.09
2022-11-16T13:14:03.944Z,8.09
2022-11-16T13:16:07.267Z,8.10
2022-11-16T13:18:15.397Z,8.12
2022-11-16T13:21:05.503Z,8.12
2022-11-16T13:23:50.222Z,8.09
2022-11-16T13:26:17.241Z,8.12
2022-11-16T13:28:45.382Z,8.10
2022-11-16T13:31:30.282Z,8.12
2022-11-16T13:33:50.737Z,8.13
2022-11-16T13:35:52.878Z,8.11
2022-11-16T13:37:54.412Z,8.08
2022-11-16T13:39:58.522Z,8.06
2022-11-16T13:42:11.442Z,8.04
2022-11-16T13:44:20.373Z,8.06
2022-11-16T13:46:48.829Z,8.04
2022-11-16T13:48:45.825Z,8.05
2022-11-16T13:50:56.252Z,8.05
2022-11-16T13:53:57.592Z,8.05
2022-11-16T13:55:31.629Z,8.02
2022-11-16T13:57:34.633Z,7.97
2022-11-16T13:59:36.704Z,7.97
2022-11-16T14:02:22.735Z,7.96
2022-11-16T14:04:55.909Z,7.97
2022-11-16T14:06:59.432Z,7.97
2022-11-16T14:09:01.103Z,7.96
2022-11-16T14:11:03.241Z,7.92
2022-11-16T14:13:06.260Z,7.88
2022-11-16T14:15:21.912Z,7.82
2022-11-16T14:18:00.961Z,7.80
2022-11-16T14:20:02.506Z,7.82
2022-11-16T14:22:13.091Z,7.81
2022-11-16T14:24:36.789Z,7.77
2022-11-16T14:27:05.874Z,7.73
2022-11-16T14:29:20.575Z,7.74
2022-11-16T14:31:25.921Z,7.74
2022-11-16T14:33:35.907Z,7.75
2022-11-16T14:35:40.105Z,7.77
2022-11-16T14:37:42.360Z,7.78
2022-11-16T14:39:44.638Z,7.76
2022-11-16T14:41:47.170Z,7.77
2022-11-16T14:43:55.254Z,7.78
2022-11-16T14:46:04.398Z,7.76
2022-11-16T14:48:15.413Z,7.76
2022-11-16T14:50:24.798Z,7.74
2022-11-16T14:52:43.877Z,7.75
2022-11-16T14:54:52.375Z,7.72
2022-11-16T14:57:04.983Z,7.72
2022-11-16T14:59:06.422Z,7.71
2022-11-16T15:01:14.520Z,7.73
2022-11-16T15:03:16.120Z,7.70
2022-11-16T15:05:20.904Z,7.70
2022-11-16T15:07:23.954Z,7.67
2022-11-16T15:09:40.487Z,7.69
2022-11-16T15:12:01.406Z,7.67
2022-11-16T15:14:02.921Z,7.63
2022-11-16T15:16:16.163Z,7.63
2022-11-16T15:18:20.808Z,7.59
2022-11-16T15:20:25.124Z,7.59
2022-11-16T15:22:30.847Z,7.60
2022-11-16T15:24:35.288Z,7.62
2022-11-16T15:26:38.497Z,7.62
2022-11-16T15:28:40.225Z,7.64
2022-11-16T15:30:44.951Z,7.61
2022-11-16T15:32:49.751Z,7.63
2022-11-16T15:34:53.776Z,7.63
2022-11-16T15:36:55.223Z,7.59
2022-11-16T15:38:58.771Z,7.57
2022-11-16T15:41:03.568Z,7.57
2022-11-16T15:43:06.529Z,7.56
2022-11-16T15:45:22.261Z,7.56
2022-11-16T15:47:24.614Z,7.57
2022-11-16T15:49:53.148Z,7.53
2022-11-16T15:51:54.624Z,7.49
2022-11-16T15:54:21.571Z,7.50
2022-11-16T15:56:26.011Z,7.51
2022-11-16T15:58:32.269Z,7.53
2022-11-16T16:00:37.470Z,7.55
2022-11-16T16:02:43.170Z,7.54
2022-11-16T16:04:44.723Z,7.52
2022-11-16T16:06:55.133Z,7.54
2022-11-16T16:09:06.648Z,7.55
2022-11-16T16:11:27.407Z,7.55
2022-11-16T16:13:41.514Z,7.52
2022-11-16T16:15:42.992Z,7.53
2022-11-16T16:17:47.244Z,7.52
2022-11-16T16:19:57.885Z,7.51
2022-11-16T16:21:59.984Z,7.49
2022-11-16T16:24:01.426Z,7.47
2022-11-16T16:26:03.951Z,7.48
2022-11-16T16:28:05.421Z,7.48
2022-11-16T16:30:08.605Z,7.48
2022-11-16T16:32:20.843Z,7.50
2022-11-16T16:34:22.318Z,7.51
2022-11-16T16:36:23.723Z,7.51
2022-11-16T16:38:25.215Z,7.50
2022-11-16T16:40:27.882Z,7.48
2022-11-16T16:42:29.314Z,7.49
2022-11-16T16:44:30.742Z,7.46
2022-11-16T16:46:32.174Z,7.44
2022-11-16T16:48:33.609Z,7.44
2022-11-16T16:50:36.234Z,7.46
2022-11-16T16:52:37.671Z,7.47
2022-11-16T16:54:40.295Z,7.47
2022-11-16T16:56:41.737Z,7.47
2022-11-16T16:58:43.311Z,7.44
2022-11-16T17:00:44.945Z,7.42
2022-11-16T17:02:46.440Z,7.43
2022-11-16T17:04:48.488Z,7.44
2022-11-16T17:06:53.811Z,7.44
2022-11-16T17:08:55.699Z,7.44
2022-11-16T17:10:57.118Z,7.46
2022-11-16T17:12:58.833Z,7.45
2022-11-16T17:15:00.636Z,7.45
2022-11-16T17:17:02.188Z,7.45
2022-11-16T17:19:04.619Z,7.44
2022-11-16T17:21:07.803Z,7.45
2022-11-16T17:23:09.317Z,7.45
2022-11-16T17:25:10.899Z,7.46
2022-11-16T17:27:12.368Z,7.44
2022-11-16T17:29:14.199Z,7.45
2022-11-16T17:31:17.376Z,7.44
2022-11-16T17:33:18.793Z,7.43
2022-11-16T17:35:20.254Z,7.43
2022-11-16T17:37:21.689Z,7.41
2022-11-16T17:39:24.772Z,7.43
2022-11-16T17:41:26.310Z,7.43
2022-11-16T17:43:27.835Z,7.41
2022-11-16T17:45:29.334Z,7.41
2022-11-16T17:47:32.957Z,7.40
2022-11-16T17:49:34.395Z,7.39
2022-11-16T17:51:35.812Z,7.38
2022-11-16T17:53:37.772Z,7.38
2022-11-16T17:55:39.495Z,7.38
2022-11-16T17:57:41.010Z,7.40
2022-11-16T17:59:42.445Z,7.38
2022-11-16T18:01:44.011Z,7.39
2022-11-16T18:03:45.649Z,7.39
2022-11-16T18:05:47.086Z,7.38
2022-11-16T18:07:48.524Z,7.38
2022-11-16T18:09:50.007Z,7.38
2022-11-16T18:11:51.425Z,7.39
2022-11-16T18:13:54.930Z,7.37
2022-11-16T18:16:07.444Z,7.36
2022-11-16T18:18:08.969Z,7.37
2022-11-16T18:20:11.134Z,7.38
2022-11-16T18:22:12.575Z,7.36
2022-11-16T18:24:14.304Z,7.37
2022-11-16T18:26:18.800Z,7.38
2022-11-16T18:28:20.277Z,7.39
2022-11-16T18:30:23.381Z,7.41
2022-11-16T18:32:24.830Z,7.41
2022-11-16T18:34:26.294Z,7.41
2022-11-16T18:36:27.790Z,7.41
2022-11-16T18:38:29.348Z,7.43
2022-11-16T18:40:30.927Z,7.42
2022-11-16T18:42:32.363Z,7.42
2022-11-16T18:44:33.890Z,7.44
2022-11-16T18:46:35.456Z,7.44
2022-11-16T18:48:36.976Z,7.44
2022-11-16T18:50:38.492Z,7.43
2022-11-16T18:52:40.484Z,7.44
2022-11-16T18:54:41.918Z,7.45
2022-11-16T18:56:43.346Z,7.44
2022-11-16T18:58:53.410Z,7.44
2022-11-16T19:00:55.170Z,7.45
2022-11-16T19:02:56.643Z,7.45
2022-11-16T19:04:58.073Z,7.46
2022-11-16T19:06:59.523Z,7.45
2022-11-16T19:09:01.113Z,7.46
2022-11-16T19:11:07.023Z,7.47
2022-11-16T19:13:08.497Z,7.46
2022-11-16T19:15:10.326Z,7.47
2022-11-16T19:17:11.754Z,7.48
2022-11-16T19:19:13.199Z,7.48
2022-11-16T19:21:18.359Z,7.49
2022-11-16T19:23:19.885Z,7.50
2022-11-16T19:25:21.344Z,7.49
2022-11-16T19:27:22.825Z,7.50
2022-11-16T19:29:24.499Z,7.52
2022-11-16T19:31:28.885Z,7.52
2022-11-16T19:33:30.332Z,7.51
2022-11-16T19:35:31.998Z,7.51
2022-11-16T19:37:33.548Z,7.53
2022-11-16T19:39:35.046Z,7.53
2022-11-16T19:41:36.568Z,7.55
2022-11-16T19:43:38.505Z,7.54
2022-11-16T19:45:40.129Z,7.55
2022-11-16T19:47:41.688Z,7.57
2022-11-16T19:49:43.137Z,7.56
2022-11-16T19:51:44.543Z,7.56
2022-11-16T19:53:46.567Z,7.55
2022-11-16T19:55:55.029Z,7.52
2022-11-16T19:57:56.509Z,7.47
2022-11-16T19:59:58.216Z,7.46
2022-11-16T20:01:59.708Z,7.46
2022-11-16T20:04:03.420Z,7.45
2022-11-16T20:06:09.240Z,7.43
2022-11-16T20:08:11.134Z,7.42
2022-11-16T20:10:12.708Z,7.42
2022-11-16T20:12:14.162Z,7.41
2022-11-16T20:14:15.696Z,7.40
2022-11-16T20:16:18.723Z,7.40
2022-11-16T20:18:20.147Z,7.38
2022-11-16T20:20:21.601Z,7.37
2022-11-16T20:22:23.084Z,7.38
2022-11-16T20:24:24.503Z,7.39
2022-11-16T20:26:28.369Z,7.37
2022-11-16T20:28:33.887Z,7.36
2022-11-16T20:30:35.302Z,7.33
2022-11-16T20:32:36.851Z,7.31
2022-11-16T20:34:38.397Z,7.32
2022-11-16T20:36:42.191Z,7.33
2022-11-16T20:38:43.616Z,7.30
2022-11-16T20:40:45.046Z,7.31
2022-11-16T20:42:47.107Z,7.31
2022-11-16T20:44:48.598Z,7.29
2022-11-16T20:46:53.353Z,7.28
2022-11-16T20:48:56.959Z,7.26
2022-11-16T20:50:58.392Z,7.23
2022-11-16T20:52:59.948Z,7.25
2022-11-16T20:55:01.376Z,7.27
2022-11-16T20:57:04.669Z,7.27
2022-11-16T20:59:06.110Z,7.27
2022-11-16T21:01:10.833Z,7.27
2022-11-16T21:03:12.336Z,7.24
2022-11-16T21:05:13.844Z,7.25
2022-11-16T21:07:15.855Z,7.24
2022-11-16T21:09:22.519Z,7.25
2022-11-16T21:11:28.882Z,7.25
2022-11-16T21:13:48.785Z,7.21
2022-11-16T21:16:04.847Z,7.20
2022-11-16T21:18:06.321Z,7.19
2022-11-16T21:22:32.894Z,7.18
2022-11-16T21:24:34.735Z,7.19
2022-11-16T21:26:37.301Z,7.18
2022-11-16T21:28:39.749Z,7.17
2022-11-16T21:30:41.187Z,7.16
2022-11-16T21:32:42.680Z,7.17
2022-11-16T21:34:44.142Z,7.16
2022-11-16T21:36:45.650Z,7.17
2022-11-16T21:38:47.610Z,7.17
2022-11-16T21:40:49.700Z,7.15
2022-11-16T21:42:51.892Z,7.13
2022-11-16T21:44:53.307Z,7.12
2022-11-16T21:46:54.752Z,7.13
2022-11-16T21:48:56.608Z,7.12
2022-11-16T21:51:03.222Z,7.13
2022-11-16T21:53:06.111Z,7.10
2022-11-16T21:55:07.982Z,7.10
2022-11-16T21:57:09.402Z,7.09
2022-11-16T21:59:10.850Z,7.10
2022-11-16T22:01:13.518Z,7.08
2022-11-16T22:03:15.144Z,7.08
2022-11-16T22:05:35.718Z,7.08
2022-11-16T22:07:37.277Z,7.06
2022-11-16T22:09:38.790Z,7.07
2022-11-16T22:11:40.242Z,7.06
2022-11-16T22:13:42.345Z,7.06
2022-11-16T22:15:43.810Z,7.05
2022-11-16T22:17:45.440Z,7.05
2022-11-16T22:19:47.073Z,7.05
2022-11-16T22:21:48.481Z,7.03
2022-11-16T22:23:49.963Z,7.02
2022-11-16T22:25:51.638Z,7.00
2022-11-16T22:28:19.212Z,7.01
2022-11-16T22:30:15.058Z,7.02
2022-11-16T22:32:16.488Z,7.02
2022-11-16T22:34:17.921Z,7.01
2022-11-16T22:36:19.380Z,7.01
2022-11-16T22:38:20.844Z,6.99
2022-11-16T22:40:22.268Z,6.99
2022-11-16T22:42:23.716Z,6.98
2022-11-16T22:44:25.144Z,6.98
2022-11-16T22:46:26.591Z,6.97
2022-11-16T22:48:39.498Z,6.96
2022-11-16T22:50:42.115Z,6.93
2022-11-16T22:52:43.635Z,6.90
2022-11-16T22:54:45.067Z,6.91
2022-11-16T22:56:47.953Z,6.90
2022-11-16T22:58:49.760Z,6.89
2022-11-16T23:00:51.731Z,6.90
2022-11-16T23:02:53.278Z,6.88
2022-11-16T23:04:54.745Z,6.88
2022-11-16T23:06:56.255Z,6.87
2022-11-16T23:08:57.839Z,6.86
2022-11-16T23:11:38.781Z,6.86
2022-11-16T23:13:58.444Z,6.86
2022-11-16T23:16:04.440Z,6.84
2022-11-16T23:18:06.016Z,6.82
2022-11-16T23:20:26.832Z,6.84
2022-11-16T23:22:46.786Z,6.82
2022-11-16T23:25:06.632Z,6.82
2022-11-16T23:27:27.990Z,6.83
2022-11-16T23:29:29.480Z,6.84
2022-11-16T23:31:30.925Z,6.83
2022-11-16T23:33:44.127Z,6.83
2022-11-16T23:35:45.547Z,6.82
2022-11-16T23:38:00.794Z,6.82
2022-11-16T23:40:02.270Z,6.81
2022-11-16T23:42:22.706Z,6.81
2022-11-16T23:44:24.143Z,6.81
2022-11-16T23:46:30.931Z,6.81
2022-11-16T23:48:32.388Z,6.80
2022-11-16T23:50:34.679Z,6.80
2022-11-16T23:52:36.126Z,6.81
2022-11-16T23:54:37.932Z,6.80
2022-11-16T23:56:39.435Z,6.79
2022-11-16T23:58:40.876Z,6.79
